Meductic, Canada
Current Conditions -  °F | °C
As of 7:53 AM on Saturday 25 Oct 2014 (Local Time) from KHUL Reporting Station
Overcast Overcast  
Wind Chill: 36°   Ceiling: 2500
Heat Index: 41°   Visibility: 10mi
Dew Point: 37°   Wind: 7mph
Humidity: 86%   Direction: 20°NNE
Pressure: 29.61"   Gusts: NA
Location:  46°N, 67.47°W
Report Text: KHUL 251053Z AUTO 02006KT 10SM OVC025 05/03 A2961 RMK AO2 SLP032 T00500028
Loading
Personal Weather Stations






























Interactive Weather Map
Tropical Storm Tracking
New forecast layout! Learn more

10-Day Weather Forecast

Advertisements
Track Severe Weather on mobile